Time;durP1;ratioP1;P1;durP2;ratioP2;P2;SDS_P1;SDS_P2;PMS_P1;PMS_P2;Temp;Humidity;BMP_temperature;BMP_pressure;BME280_temperature;BME280_humidity;BME280_pressure;Samples;Min_cycle;Max_cycle;Signal;HPM_P1;HPM_P2
2022/11/16 00:02:09;;;;;;;;;;;13.20;84.10;;;;;;5042831;28;19920;-82
2022/11/16 00:04:35;;;;;;;;;;;13.10;84.00;;;;;;5028144;28;19919;-83
2022/11/16 00:07:03;;;;;;;;;;;13.10;84.10;;;;;;5032350;28;19935;-83
2022/11/16 00:09:30;;;;;;;;;;;13.10;84.00;;;;;;5040937;28;20107;-83
2022/11/16 00:11:57;;;;;;;;;;;13.10;84.50;;;;;;5048766;28;19983;-83
2022/11/16 00:14:24;;;;;;;;;;;13.10;84.80;;;;;;5051889;28;19940;-80
2022/11/16 00:16:50;;;;;;;;;;;13.00;85.20;;;;;;5047040;28;19916;-81
2022/11/16 00:19:16;;;;;;;;;;;13.00;85.60;;;;;;5045897;28;19913;-83
2022/11/16 00:21:41;;;;;;;;;;;13.00;85.40;;;;;;5051017;28;20389;-80
2022/11/16 00:24:09;;;;;;;;;;;13.00;85.20;;;;;;5029996;28;20480;-81
2022/11/16 00:26:34;;;;;;;;;;;12.90;85.50;;;;;;5046908;28;20039;-80
2022/11/16 00:29:00;;;;;;;;;;;12.90;85.60;;;;;;5048525;28;19960;-79
2022/11/16 00:31:25;;;;;;;;;;;12.90;85.50;;;;;;5047214;28;19928;-82
2022/11/16 00:33:51;;;;;;;;;;;12.70;86.20;;;;;;5045008;28;19979;-83
2022/11/16 00:36:16;;;;;;;;;;;12.80;86.40;;;;;;5045279;28;19912;-79
2022/11/16 00:38:42;;;;;;;;;;;12.70;86.60;;;;;;5026651;28;19948;-81
2022/11/16 00:41:08;;;;;;;;;;;12.80;86.70;;;;;;5030538;28;19913;-83
2022/11/16 00:43:33;;;;;;;;;;;12.70;86.70;;;;;;5028578;28;19921;-81
2022/11/16 00:45:59;;;;;;;;;;;12.80;86.40;;;;;;5044772;28;19963;-83
2022/11/16 00:48:24;;;;;;;;;;;12.80;86.20;;;;;;5043339;28;20298;-83
2022/11/16 00:50:50;;;;;;;;;;;12.70;86.60;;;;;;5028800;28;19917;-83
2022/11/16 00:53:16;;;;;;;;;;;12.70;86.70;;;;;;5046630;28;19917;-83
2022/11/16 00:55:42;;;;;;;;;;;12.60;87.20;;;;;;5032979;28;19917;-80
2022/11/16 00:58:07;;;;;;;;;;;12.60;87.20;;;;;;5049823;28;19913;-81
2022/11/16 01:00:33;;;;;;;;;;;12.60;87.60;;;;;;5048075;28;19913;-79
2022/11/16 01:02:58;;;;;;;;;;;12.60;87.70;;;;;;5046504;28;19975;-81
2022/11/16 01:05:24;;;;;;;;;;;12.60;87.30;;;;;;5031494;28;20275;-79
2022/11/16 01:07:49;;;;;;;;;;;12.60;87.50;;;;;;5046959;28;20324;-81
2022/11/16 01:10:16;;;;;;;;;;;12.60;87.80;;;;;;5046555;28;19936;-79
2022/11/16 01:12:42;;;;;;;;;;;12.60;88.20;;;;;;5050498;28;19917;-78
2022/11/16 01:15:08;;;;;;;;;;;12.50;88.10;;;;;;5045920;28;19921;-78
2022/11/16 01:17:34;;;;;;;;;;;12.50;87.90;;;;;;5047732;28;20360;-79
2022/11/16 01:20:00;;;;;;;;;;;12.50;88.30;;;;;;5050051;28;19913;-80
2022/11/16 01:22:25;;;;;;;;;;;12.50;88.30;;;;;;5032566;28;19959;-81
2022/11/16 01:24:50;;;;;;;;;;;12.50;88.50;;;;;;5051070;28;19999;-81
2022/11/16 01:27:16;;;;;;;;;;;12.60;88.70;;;;;;5037520;28;19912;-80
2022/11/16 01:29:41;;;;;;;;;;;12.50;88.70;;;;;;5032526;28;21302;-81
2022/11/16 01:32:07;;;;;;;;;;;12.50;88.60;;;;;;5047746;28;20024;-81
2022/11/16 01:34:32;;;;;;;;;;;12.50;88.50;;;;;;5049916;28;19913;-82
2022/11/16 01:36:58;;;;;;;;;;;12.50;88.70;;;;;;5046063;28;19936;-82
2022/11/16 01:39:23;;;;;;;;;;;12.40;88.50;;;;;;5047673;28;20019;-84
2022/11/16 01:41:49;;;;;;;;;;;12.40;88.80;;;;;;5047002;28;20011;-83
2022/11/16 01:44:29;;;;;;;;;;;12.40;89.00;;;;;;5034427;28;19921;-80
2022/11/16 01:46:55;;;;;;;;;;;12.40;88.70;;;;;;5031168;28;19921;-80
2022/11/16 01:49:22;;;;;;;;;;;12.40;89.00;;;;;;5034001;28;20057;-78
2022/11/16 01:51:52;;;;;;;;;;;12.40;89.00;;;;;;5048216;28;19913;-80
2022/11/16 01:54:17;;;;;;;;;;;12.40;88.80;;;;;;5047455;28;19999;-80
2022/11/16 01:56:44;;;;;;;;;;;12.40;88.70;;;;;;5029142;28;20631;-80
2022/11/16 01:59:10;;;;;;;;;;;12.40;88.80;;;;;;5051185;28;19936;-81
2022/11/16 02:01:36;;;;;;;;;;;12.30;88.70;;;;;;5048037;28;19932;-81
2022/11/16 02:04:01;;;;;;;;;;;12.40;88.60;;;;;;5051697;28;19913;-81
2022/11/16 02:06:27;;;;;;;;;;;12.40;88.60;;;;;;5050107;28;20002;-80
2022/11/16 02:11:48;;;;;;;;;;;12.30;88.80;;;;;;5038999;28;20710;-81
2022/11/16 02:14:32;;;;;;;;;;;12.30;89.00;;;;;;5047786;28;19913;-80
2022/11/16 02:17:16;;;;;;;;;;;12.30;89.20;;;;;;5042767;28;20373;-81
2022/11/16 02:20:00;;;;;;;;;;;12.30;89.30;;;;;;5044714;28;20285;-81
2022/11/16 02:22:43;;;;;;;;;;;12.40;89.30;;;;;;5044801;28;19970;-81
2022/11/16 02:25:19;;;;;;;;;;;12.30;89.30;;;;;;5043797;28;20000;-81
2022/11/16 02:28:05;;;;;;;;;;;12.40;89.40;;;;;;5031754;28;19944;-82
2022/11/16 02:30:30;;;;;;;;;;;12.30;89.10;;;;;;5015263;28;19948;-81
2022/11/16 02:33:01;;;;;;;;;;;12.40;89.00;;;;;;5029383;28;19955;-81
2022/11/16 02:35:32;;;;;;;;;;;12.30;89.20;;;;;;5043958;28;20376;-81
2022/11/16 02:38:03;;;;;;;;;;;12.40;89.50;;;;;;5049175;28;19912;-81
2022/11/16 02:40:30;;;;;;;;;;;12.40;89.40;;;;;;5045758;28;19897;-79
2022/11/16 02:43:02;;;;;;;;;;;12.40;89.40;;;;;;5051198;28;19923;-82
2022/11/16 02:45:30;;;;;;;;;;;12.40;89.20;;;;;;5080212;22;19925;-81
2022/11/16 02:48:02;;;;;;;;;;;12.40;89.30;;;;;;5057704;28;20015;-82
2022/11/16 02:50:34;;;;;;;;;;;12.40;89.50;;;;;;5058837;28;19931;-81
2022/11/16 02:52:59;;;;;;;;;;;12.40;89.70;;;;;;5071509;28;19991;-82
2022/11/16 02:55:26;;;;;;;;;;;12.40;89.60;;;;;;5063354;28;20872;-81
2022/11/16 02:57:57;;;;;;;;;;;12.40;90.10;;;;;;5100655;28;19912;-81
2022/11/16 03:00:25;;;;;;;;;;;12.30;89.80;;;;;;5096245;28;19916;-82
2022/11/16 03:02:55;;;;;;;;;;;12.30;90.00;;;;;;5084316;28;19965;-82
2022/11/16 03:05:30;;;;;;;;;;;12.40;89.90;;;;;;5095188;28;19923;-81
2022/11/16 03:08:02;;;;;;;;;;;12.40;89.70;;;;;;5097780;28;19957;-81
2022/11/16 03:13:13;;;;;;;;;;;12.30;90.30;;;;;;5097490;28;20993;-82
2022/11/16 03:15:39;;;;;;;;;;;12.30;90.30;;;;;;5100359;28;19947;-82
2022/11/16 03:18:06;;;;;;;;;;;12.30;90.10;;;;;;5101627;28;19916;-82
2022/11/16 03:20:38;;;;;;;;;;;12.40;90.10;;;;;;5098520;28;19912;-82
2022/11/16 03:23:06;;;;;;;;;;;12.30;89.90;;;;;;5080688;28;19912;-82
2022/11/16 03:25:37;;;;;;;;;;;12.40;89.90;;;;;;5085334;28;20353;-82
2022/11/16 03:28:24;;;;;;;;;;;12.30;89.60;;;;;;5089676;28;19916;-82
2022/11/16 03:30:51;;;;;;;;;;;12.30;89.90;;;;;;5094880;28;19924;-81
2022/11/16 03:33:20;;;;;;;;;;;12.20;89.90;;;;;;5093551;28;20003;-81
2022/11/16 03:36:08;;;;;;;;;;;12.30;90.00;;;;;;5093732;28;20365;-82
2022/11/16 03:38:35;;;;;;;;;;;12.20;90.00;;;;;;5075163;28;20011;-82
2022/11/16 03:41:05;;;;;;;;;;;12.20;90.30;;;;;;5078829;28;19916;-81
2022/11/16 03:43:31;;;;;;;;;;;12.40;90.10;;;;;;5091799;28;19917;-82
2022/11/16 03:45:57;;;;;;;;;;;12.30;89.80;;;;;;5091774;28;19920;-82
2022/11/16 03:48:22;;;;;;;;;;;12.40;90.10;;;;;;5092267;28;19918;-82
2022/11/16 03:50:51;;;;;;;;;;;12.30;90.00;;;;;;5075786;28;19924;-81
2022/11/16 03:53:16;;;;;;;;;;;12.30;90.10;;;;;;5084815;28;19916;-81
2022/11/16 03:55:43;;;;;;;;;;;12.40;89.40;;;;;;5087331;28;19917;-81
2022/11/16 03:58:09;;;;;;;;;;;12.30;89.50;;;;;;5104882;28;19912;-82
2022/11/16 04:00:34;;;;;;;;;;;12.30;89.80;;;;;;5078098;28;19927;-81
2022/11/16 04:03:00;;;;;;;;;;;12.20;89.80;;;;;;5076648;28;20585;-82
2022/11/16 04:24:44;;;;;;;;;;;12.40;89.50;;;;;;5091030;28;20042;-81
2022/11/16 04:29:57;;;;;;;;;;;12.40;89.20;;;;;;5096505;28;19931;-81
2022/11/16 04:37:52;;;;;;;;;;;12.30;89.00;;;;;;5094291;28;19919;-82
2022/11/16 04:40:18;;;;;;;;;;;12.30;89.20;;;;;;5081290;28;20005;-82
2022/11/16 04:42:49;;;;;;;;;;;12.30;89.00;;;;;;5095675;28;19912;-82
2022/11/16 04:47:59;;;;;;;;;;;12.40;89.10;;;;;;5108625;28;19926;-82
2022/11/16 04:50:24;;;;;;;;;;;12.30;88.80;;;;;;5096284;28;19924;-81
2022/11/16 04:52:50;;;;;;;;;;;12.30;89.20;;;;;;5091112;28;20114;-82
2022/11/16 04:55:15;;;;;;;;;;;12.20;89.50;;;;;;5090595;28;19920;-82
2022/11/16 04:57:41;;;;;;;;;;;12.30;89.40;;;;;;5096656;28;19916;-82
2022/11/16 05:00:10;;;;;;;;;;;12.30;89.50;;;;;;5099094;28;19912;-82
2022/11/16 05:02:35;;;;;;;;;;;12.20;89.50;;;;;;5091778;28;19918;-81
2022/11/16 05:05:01;;;;;;;;;;;12.20;89.70;;;;;;5096625;28;19973;-81
2022/11/16 05:07:26;;;;;;;;;;;12.20;89.60;;;;;;5102294;28;19912;-80
2022/11/16 05:09:51;;;;;;;;;;;12.20;89.80;;;;;;5084472;28;20288;-80
2022/11/16 05:12:19;;;;;;;;;;;12.20;89.70;;;;;;5102476;28;19986;-82
2022/11/16 05:14:44;;;;;;;;;;;12.20;89.70;;;;;;5076269;28;19963;-82
2022/11/16 05:17:10;;;;;;;;;;;12.20;89.70;;;;;;5095719;28;19912;-81
2022/11/16 05:22:20;;;;;;;;;;;12.20;89.60;;;;;;5105259;28;19978;-81
2022/11/16 05:24:45;;;;;;;;;;;12.10;89.40;;;;;;5095448;28;19920;-82
2022/11/16 05:27:13;;;;;;;;;;;12.10;89.90;;;;;;5079434;28;19912;-81
2022/11/16 05:29:38;;;;;;;;;;;12.10;89.90;;;;;;5074377;28;19958;-81
2022/11/16 05:32:04;;;;;;;;;;;12.10;90.00;;;;;;5094633;28;19920;-82
2022/11/16 05:34:30;;;;;;;;;;;12.10;89.90;;;;;;5081500;28;19926;-82
2022/11/16 05:36:56;;;;;;;;;;;12.20;89.80;;;;;;5082381;28;19916;-82
2022/11/16 05:39:22;;;;;;;;;;;12.10;89.80;;;;;;5090280;28;19957;-82
2022/11/16 05:41:47;;;;;;;;;;;12.10;89.90;;;;;;5097469;28;19920;-81
2022/11/16 05:44:13;;;;;;;;;;;12.20;89.60;;;;;;5091312;28;19935;-81
2022/11/16 05:46:38;;;;;;;;;;;12.10;89.30;;;;;;5100392;28;19996;-81
2022/11/16 05:49:06;;;;;;;;;;;12.20;89.50;;;;;;5082785;28;19916;-82
2022/11/16 05:51:32;;;;;;;;;;;12.10;88.90;;;;;;5084611;28;20061;-82
2022/11/16 05:53:58;;;;;;;;;;;12.10;88.90;;;;;;5098065;28;20460;-81
2022/11/16 05:56:23;;;;;;;;;;;12.10;89.10;;;;;;5093915;28;19922;-81
2022/11/16 05:58:49;;;;;;;;;;;12.10;89.00;;;;;;5073338;28;19926;-83
2022/11/16 06:01:14;;;;;;;;;;;12.10;89.00;;;;;;5091267;28;19920;-83
2022/11/16 06:03:40;;;;;;;;;;;12.10;88.90;;;;;;5082674;28;20007;-84
2022/11/16 06:06:05;;;;;;;;;;;12.10;88.60;;;;;;5082077;28;19998;-84
2022/11/16 06:08:31;;;;;;;;;;;12.00;88.40;;;;;;5074373;28;20535;-82
2022/11/16 06:10:59;;;;;;;;;;;12.10;88.50;;;;;;5068273;28;19966;-84
2022/11/16 06:13:25;;;;;;;;;;;12.00;88.40;;;;;;5072020;28;19921;-82
2022/11/16 06:15:50;;;;;;;;;;;12.00;88.70;;;;;;5091326;28;19942;-82
2022/11/16 06:18:16;;;;;;;;;;;11.90;88.80;;;;;;5071747;28;19916;-81
2022/11/16 06:20:41;;;;;;;;;;;11.80;89.00;;;;;;5087369;28;20340;-82
2022/11/16 06:23:06;;;;;;;;;;;11.90;89.40;;;;;;5074200;28;19920;-83
2022/11/16 06:25:32;;;;;;;;;;;11.80;89.30;;;;;;5090537;28;19913;-83
2022/11/16 06:27:58;;;;;;;;;;;11.80;89.50;;;;;;5098682;28;19922;-83
2022/11/16 06:30:24;;;;;;;;;;;11.90;89.40;;;;;;5093862;28;19924;-83
2022/11/16 06:32:49;;;;;;;;;;;11.80;89.40;;;;;;5095006;28;19976;-83
2022/11/16 06:35:15;;;;;;;;;;;11.80;89.30;;;;;;5091963;28;19937;-82
2022/11/16 06:37:40;;;;;;;;;;;11.80;89.30;;;;;;5087606;28;19919;-87
2022/11/16 06:40:06;;;;;;;;;;;11.90;89.60;;;;;;5075485;28;20510;-86
2022/11/16 06:42:31;;;;;;;;;;;11.90;89.40;;;;;;5088993;28;19912;-86
2022/11/16 06:44:57;;;;;;;;;;;11.80;88.90;;;;;;5087201;28;19974;-83
2022/11/16 06:47:22;;;;;;;;;;;11.90;89.30;;;;;;5073452;28;20305;-87
2022/11/16 06:49:48;;;;;;;;;;;11.90;89.40;;;;;;5063218;28;19920;-82
2022/11/16 06:52:13;;;;;;;;;;;11.80;89.50;;;;;;5089852;28;19912;-83
2022/11/16 06:54:38;;;;;;;;;;;11.80;89.40;;;;;;5074934;28;19908;-83
2022/11/16 06:57:04;;;;;;;;;;;11.80;89.40;;;;;;5071764;28;19923;-82
2022/11/16 06:59:29;;;;;;;;;;;11.80;89.60;;;;;;5089468;28;19913;-82
2022/11/16 07:01:55;;;;;;;;;;;11.80;89.80;;;;;;5088665;28;19997;-82
2022/11/16 07:04:20;;;;;;;;;;;11.90;89.70;;;;;;5080945;28;19912;-83
2022/11/16 07:06:46;;;;;;;;;;;11.90;89.80;;;;;;5093819;28;20262;-82
2022/11/16 07:09:12;;;;;;;;;;;11.80;89.70;;;;;;5068068;28;19979;-82
2022/11/16 07:11:38;;;;;;;;;;;11.70;89.70;;;;;;5070515;28;19935;-82
2022/11/16 07:14:03;;;;;;;;;;;11.80;89.90;;;;;;5080080;28;20049;-83
2022/11/16 07:16:28;;;;;;;;;;;11.70;89.60;;;;;;5092197;28;19908;-83
2022/11/16 07:18:58;;;;;;;;;;;11.70;89.50;;;;;;5074455;28;19927;-83
2022/11/16 07:21:23;;;;;;;;;;;11.80;89.90;;;;;;5094752;28;19952;-83
2022/11/16 07:23:49;;;;;;;;;;;11.80;89.90;;;;;;5072581;28;19948;-81
2022/11/16 07:26:14;;;;;;;;;;;11.80;89.70;;;;;;5096369;28;19921;-82
2022/11/16 07:28:40;;;;;;;;;;;11.90;89.30;;;;;;5086969;28;19915;-81
2022/11/16 07:31:07;;;;;;;;;;;12.00;89.50;;;;;;5098061;28;19927;-88
2022/11/16 07:33:33;;;;;;;;;;;12.10;89.00;;;;;;5075042;28;19915;-86
2022/11/16 07:36:00;;;;;;;;;;;12.10;89.20;;;;;;5094021;28;20381;-86
2022/11/16 07:38:25;;;;;;;;;;;12.10;89.20;;;;;;5077448;28;19921;-87
2022/11/16 07:40:50;;;;;;;;;;;12.10;88.80;;;;;;5095581;28;19945;-86
2022/11/16 07:43:16;;;;;;;;;;;12.10;88.90;;;;;;5077823;28;20376;-86
2022/11/16 07:45:41;;;;;;;;;;;12.10;88.60;;;;;;5079840;28;21207;-84
2022/11/16 07:48:07;;;;;;;;;;;12.10;88.50;;;;;;5100430;28;20007;-84
2022/11/16 07:50:34;;;;;;;;;;;12.10;88.40;;;;;;5098233;28;20369;-85
2022/11/16 07:52:59;;;;;;;;;;;12.20;87.80;;;;;;5088388;28;19978;-85
2022/11/16 07:55:30;;;;;;;;;;;12.10;87.70;;;;;;5095701;28;20377;-84
2022/11/16 07:57:55;;;;;;;;;;;12.00;87.50;;;;;;5089987;28;19962;-85
2022/11/16 08:00:22;;;;;;;;;;;11.90;87.60;;;;;;5074931;28;19912;-85
2022/11/16 08:02:47;;;;;;;;;;;11.80;87.80;;;;;;5094137;28;20392;-85
2022/11/16 08:05:15;;;;;;;;;;;11.70;88.00;;;;;;5083991;28;19912;-85
2022/11/16 08:07:40;;;;;;;;;;;11.70;88.00;;;;;;5096400;28;20404;-85
2022/11/16 08:10:06;;;;;;;;;;;11.60;88.10;;;;;;5073392;28;19912;-85
2022/11/16 08:12:32;;;;;;;;;;;11.60;87.30;;;;;;5071483;28;20377;-84
2022/11/16 08:14:57;;;;;;;;;;;11.50;87.30;;;;;;5071206;28;19977;-86
2022/11/16 08:17:23;;;;;;;;;;;11.50;87.40;;;;;;5091153;28;19920;-86
2022/11/16 08:19:48;;;;;;;;;;;11.40;87.50;;;;;;5080479;28;19939;-86
2022/11/16 08:22:14;;;;;;;;;;;11.40;87.30;;;;;;5094531;28;19952;-87
2022/11/16 08:24:40;;;;;;;;;;;11.30;87.50;;;;;;5083964;28;19913;-85
2022/11/16 08:27:05;;;;;;;;;;;11.30;87.20;;;;;;5090145;28;19946;-85
2022/11/16 08:29:31;;;;;;;;;;;11.30;87.30;;;;;;5106397;28;20015;-86
2022/11/16 08:31:56;;;;;;;;;;;11.20;87.10;;;;;;5086387;28;19916;-85
2022/11/16 08:34:22;;;;;;;;;;;11.20;87.50;;;;;;5099590;28;19920;-88
2022/11/16 08:36:49;;;;;;;;;;;11.20;87.50;;;;;;5089251;28;19920;-86
2022/11/16 08:39:15;;;;;;;;;;;11.10;87.00;;;;;;5074784;28;19923;-87
2022/11/16 08:41:41;;;;;;;;;;;11.20;86.90;;;;;;5076249;28;19912;-86
2022/11/16 08:44:06;;;;;;;;;;;11.30;87.00;;;;;;5101566;28;19912;-86
2022/11/16 08:46:32;;;;;;;;;;;11.20;86.90;;;;;;5113132;22;19971;-80
2022/11/16 08:48:57;;;;;;;;;;;11.30;86.90;;;;;;5051810;28;19912;-82
2022/11/16 08:51:24;;;;;;;;;;;11.30;87.50;;;;;;5053171;28;19920;-82
2022/11/16 08:53:53;;;;;;;;;;;11.40;87.60;;;;;;5071210;28;19952;-80
2022/11/16 08:56:19;;;;;;;;;;;11.40;87.40;;;;;;5068221;28;19913;-82
2022/11/16 08:58:47;;;;;;;;;;;11.40;87.10;;;;;;5052421;28;19920;-79
2022/11/16 09:01:14;;;;;;;;;;;11.50;87.20;;;;;;5051226;28;19956;-79
2022/11/16 09:03:40;;;;;;;;;;;11.50;87.00;;;;;;5055328;28;19923;-79
2022/11/16 09:06:06;;;;;;;;;;;11.50;86.30;;;;;;5059542;28;19917;-79
2022/11/16 09:08:31;;;;;;;;;;;11.60;86.30;;;;;;5037730;28;19917;-80
2022/11/16 09:10:57;;;;;;;;;;;11.60;86.00;;;;;;5058323;28;20292;-81
2022/11/16 09:13:24;;;;;;;;;;;11.60;85.90;;;;;;5050747;28;19913;-81
2022/11/16 09:15:59;;;;;;;;;;;11.60;85.40;;;;;;5053939;28;19920;-81
2022/11/16 09:18:24;;;;;;;;;;;11.60;85.30;;;;;;5055554;28;20278;-80
2022/11/16 09:20:50;;;;;;;;;;;11.60;85.00;;;;;;5062835;28;19935;-80
2022/11/16 09:23:16;;;;;;;;;;;11.60;84.70;;;;;;5060633;28;20431;-81
2022/11/16 09:25:43;;;;;;;;;;;11.70;85.10;;;;;;5037464;28;20004;-81
2022/11/16 09:28:10;;;;;;;;;;;11.70;85.00;;;;;;5037449;28;20348;-81
2022/11/16 09:30:35;;;;;;;;;;;11.60;84.20;;;;;;5032645;28;19916;-81
2022/11/16 09:33:01;;;;;;;;;;;11.60;83.60;;;;;;5054788;28;19948;-80
2022/11/16 09:35:26;;;;;;;;;;;11.70;83.20;;;;;;5047812;28;19917;-81
2022/11/16 09:37:51;;;;;;;;;;;11.70;82.80;;;;;;5045695;28;19957;-81
2022/11/16 09:40:17;;;;;;;;;;;11.70;83.50;;;;;;5036472;28;20459;-79
2022/11/16 09:42:51;;;;;;;;;;;11.80;82.20;;;;;;5041723;28;19963;-77
2022/11/16 09:45:21;;;;;;;;;;;11.80;81.80;;;;;;5053667;28;19921;-78
2022/11/16 09:47:48;;;;;;;;;;;11.80;82.00;;;;;;5065954;28;19917;-80
2022/11/16 09:50:32;;;;;;;;;;;11.70;80.80;;;;;;5037464;28;19960;-80
2022/11/16 09:53:03;;;;;;;;;;;11.80;80.20;;;;;;5036628;28;20386;-80
2022/11/16 09:55:34;;;;;;;;;;;11.70;81.00;;;;;;5054085;28;20008;-80
2022/11/16 09:58:01;;;;;;;;;;;11.70;80.90;;;;;;5044875;28;19958;-79
2022/11/16 10:00:28;;;;;;;;;;;11.80;80.30;;;;;;5048521;28;19952;-79
2022/11/16 10:03:00;;;;;;;;;;;11.80;80.50;;;;;;5054576;28;19920;-80
2022/11/16 10:05:36;;;;;;;;;;;11.80;81.00;;;;;;5061914;28;19917;-80
2022/11/16 10:08:05;;;;;;;;;;;12.00;81.20;;;;;;5037247;28;20418;-78
2022/11/16 10:10:36;;;;;;;;;;;12.00;80.20;;;;;;5056168;28;19916;-80
2022/11/16 10:13:11;;;;;;;;;;;12.10;79.00;;;;;;5038012;28;20328;-79
2022/11/16 10:15:43;;;;;;;;;;;12.10;77.50;;;;;;5052030;28;21517;-80
2022/11/16 10:18:24;;;;;;;;;;;12.00;76.90;;;;;;5036723;28;19917;-79
2022/11/16 10:20:55;;;;;;;;;;;11.90;77.20;;;;;;5055210;28;19917;-79
2022/11/16 10:23:39;;;;;;;;;;;11.80;77.50;;;;;;5053340;28;19917;-80
2022/11/16 10:26:19;;;;;;;;;;;11.80;77.30;;;;;;5037792;28;19913;-78
2022/11/16 10:29:04;;;;;;;;;;;11.80;77.80;;;;;;5052647;28;19912;-79
2022/11/16 10:31:32;;;;;;;;;;;11.80;78.00;;;;;;5055664;28;19913;-79
2022/11/16 10:33:59;;;;;;;;;;;12.00;77.90;;;;;;5054083;28;19923;-79
2022/11/16 10:36:26;;;;;;;;;;;12.10;77.80;;;;;;5037188;28;19915;-80
2022/11/16 10:38:54;;;;;;;;;;;12.10;78.00;;;;;;5052810;28;19913;-80
2022/11/16 10:41:38;;;;;;;;;;;12.30;78.60;;;;;;5044782;28;19912;-78
2022/11/16 10:44:23;;;;;;;;;;;12.50;77.40;;;;;;5056788;28;19967;-78
2022/11/16 10:46:56;;;;;;;;;;;12.50;77.00;;;;;;5049049;28;19905;-78
2022/11/16 10:49:28;;;;;;;;;;;12.50;75.50;;;;;;5040232;28;20332;-79
2022/11/16 10:51:53;;;;;;;;;;;12.60;76.80;;;;;;5078041;28;19897;-78
2022/11/16 10:54:19;;;;;;;;;;;12.50;73.80;;;;;;5077292;28;19927;-78
2022/11/16 10:56:47;;;;;;;;;;;12.50;73.80;;;;;;5042825;28;19963;-78
2022/11/16 10:59:13;;;;;;;;;;;12.40;73.30;;;;;;5057754;28;19999;-80
2022/11/16 11:01:38;;;;;;;;;;;12.30;73.90;;;;;;5056422;28;19913;-79
2022/11/16 11:04:14;;;;;;;;;;;12.30;73.90;;;;;;5052773;28;19916;-80
2022/11/16 11:06:40;;;;;;;;;;;12.40;73.00;;;;;;5023840;28;19960;-80
2022/11/16 11:09:15;;;;;;;;;;;12.40;73.20;;;;;;5036857;28;19917;-79
2022/11/16 11:14:24;;;;;;;;;;;12.50;73.10;;;;;;5052842;28;19923;-79
2022/11/16 11:16:53;;;;;;;;;;;12.50;72.90;;;;;;5049110;28;19971;-79
2022/11/16 11:19:26;;;;;;;;;;;12.40;73.10;;;;;;5033746;28;19916;-79
2022/11/16 11:22:00;;;;;;;;;;;12.40;72.50;;;;;;5032589;28;20445;-79
2022/11/16 11:24:27;;;;;;;;;;;12.50;73.00;;;;;;5051710;28;19939;-79
2022/11/16 11:26:59;;;;;;;;;;;12.50;72.50;;;;;;5033446;28;19924;-79
2022/11/16 11:29:26;;;;;;;;;;;12.70;72.60;;;;;;5053972;28;19908;-80
2022/11/16 11:31:53;;;;;;;;;;;12.80;71.60;;;;;;5050550;28;19921;-80
2022/11/16 11:34:22;;;;;;;;;;;13.00;71.60;;;;;;5052886;28;22344;-78
2022/11/16 11:36:51;;;;;;;;;;;13.00;70.30;;;;;;5041329;28;19996;-79
2022/11/16 11:39:19;;;;;;;;;;;12.90;69.30;;;;;;5058323;28;20332;-79
2022/11/16 11:41:49;;;;;;;;;;;12.80;70.80;;;;;;5054739;28;19959;-78
2022/11/16 11:44:16;;;;;;;;;;;12.80;70.90;;;;;;5051182;28;20294;-78
2022/11/16 11:46:50;;;;;;;;;;;12.80;72.50;;;;;;5050278;28;20008;-79
2022/11/16 11:49:22;;;;;;;;;;;12.80;72.30;;;;;;5054483;28;19917;-79
2022/11/16 11:51:48;;;;;;;;;;;12.60;70.20;;;;;;5067172;28;19920;-79
2022/11/16 11:54:16;;;;;;;;;;;12.70;71.40;;;;;;5049457;28;19917;-79
2022/11/16 11:56:42;;;;;;;;;;;12.70;70.80;;;;;;5050006;28;19991;-78
2022/11/16 11:59:09;;;;;;;;;;;12.90;71.60;;;;;;5049973;28;19994;-80
2022/11/16 12:01:51;;;;;;;;;;;12.90;71.20;;;;;;5052050;28;19913;-79
2022/11/16 12:04:19;;;;;;;;;;;12.80;70.70;;;;;;5053678;28;19978;-79
2022/11/16 12:06:51;;;;;;;;;;;12.80;70.40;;;;;;5063782;28;19919;-79
2022/11/16 12:09:28;;;;;;;;;;;12.80;70.70;;;;;;5037015;28;19917;-80
2022/11/16 12:12:13;;;;;;;;;;;13.00;70.70;;;;;;5033973;28;19917;-78
2022/11/16 12:14:52;;;;;;;;;;;13.00;71.30;;;;;;5053179;28;19959;-79
2022/11/16 12:17:18;;;;;;;;;;;13.10;69.40;;;;;;5037436;28;19952;-80
2022/11/16 12:19:49;;;;;;;;;;;13.10;69.90;;;;;;5037358;28;19909;-80
2022/11/16 12:22:26;;;;;;;;;;;13.20;70.30;;;;;;5051088;28;20027;-79
2022/11/16 12:24:58;;;;;;;;;;;13.30;69.50;;;;;;5032729;28;19924;-78
2022/11/16 12:27:43;;;;;;;;;;;13.30;68.90;;;;;;5031242;28;20047;-79
2022/11/16 12:30:12;;;;;;;;;;;13.40;69.50;;;;;;5055211;28;19975;-79
2022/11/16 12:32:42;;;;;;;;;;;13.60;69.50;;;;;;5052834;28;19917;-80
2022/11/16 12:35:27;;;;;;;;;;;13.60;68.50;;;;;;5051094;28;19920;-79
2022/11/16 12:37:52;;;;;;;;;;;13.60;69.20;;;;;;5045738;28;19919;-79
2022/11/16 12:40:33;;;;;;;;;;;13.60;67.80;;;;;;5055246;28;19916;-80
2022/11/16 12:43:07;;;;;;;;;;;13.40;68.60;;;;;;5040550;28;19919;-80
2022/11/16 12:45:56;;;;;;;;;;;13.70;68.60;;;;;;5045260;28;20003;-80
2022/11/16 12:48:40;;;;;;;;;;;13.60;68.20;;;;;;5048928;28;19909;-79
2022/11/16 12:51:15;;;;;;;;;;;13.50;67.40;;;;;;5055126;28;20389;-80
2022/11/16 12:53:55;;;;;;;;;;;13.30;68.10;;;;;;5050793;28;20526;-82
2022/11/16 12:56:28;;;;;;;;;;;13.30;67.90;;;;;;5049795;28;19987;-83
2022/11/16 12:59:00;;;;;;;;;;;13.10;68.60;;;;;;5048754;28;19958;-82
2022/11/16 13:01:47;;;;;;;;;;;13.20;68.90;;;;;;5054333;28;20297;-81
2022/11/16 13:04:28;;;;;;;;;;;13.30;68.70;;;;;;5037441;28;20377;-82
2022/11/16 13:07:03;;;;;;;;;;;13.30;68.50;;;;;;5035384;28;19920;-82
2022/11/16 13:09:30;;;;;;;;;;;13.30;67.60;;;;;;5038734;28;19914;-85
2022/11/16 13:11:57;;;;;;;;;;;13.20;68.30;;;;;;5049758;28;20007;-83
2022/11/16 13:14:24;;;;;;;;;;;13.20;68.90;;;;;;5044126;28;19920;-82
2022/11/16 13:16:50;;;;;;;;;;;13.10;69.00;;;;;;5065994;28;19975;-83
2022/11/16 13:19:16;;;;;;;;;;;13.20;69.40;;;;;;5038072;28;19970;-83
2022/11/16 13:21:46;;;;;;;;;;;13.20;68.50;;;;;;5038222;28;20007;-83
2022/11/16 13:24:30;;;;;;;;;;;13.20;68.70;;;;;;5056499;28;20389;-83
2022/11/16 13:27:04;;;;;;;;;;;13.10;68.90;;;;;;5056477;28;19936;-84
2022/11/16 13:29:36;;;;;;;;;;;13.10;69.70;;;;;;5051502;28;19956;-81
2022/11/16 13:32:12;;;;;;;;;;;13.10;69.80;;;;;;5045080;28;19913;-84
2022/11/16 13:34:39;;;;;;;;;;;13.10;67.90;;;;;;5051264;28;19920;-83
2022/11/16 13:37:23;;;;;;;;;;;13.10;68.00;;;;;;5038514;28;19921;-83
2022/11/16 13:39:57;;;;;;;;;;;13.20;69.50;;;;;;5055748;28;19962;-83
2022/11/16 13:42:23;;;;;;;;;;;13.10;69.70;;;;;;5035438;28;19913;-82
2022/11/16 13:44:49;;;;;;;;;;;13.00;70.90;;;;;;5033371;28;20059;-82
2022/11/16 13:47:26;;;;;;;;;;;12.90;70.80;;;;;;5036740;28;19932;-82
2022/11/16 13:49:53;;;;;;;;;;;13.00;69.30;;;;;;5063587;28;20336;-81
2022/11/16 13:52:18;;;;;;;;;;;13.10;68.50;;;;;;5036848;28;19920;-83
2022/11/16 13:54:49;;;;;;;;;;;13.10;69.30;;;;;;5034826;28;20318;-82
2022/11/16 13:57:31;;;;;;;;;;;13.30;68.80;;;;;;5034280;28;19920;-82
2022/11/16 13:59:59;;;;;;;;;;;13.20;69.80;;;;;;5058564;28;19963;-83
2022/11/16 14:02:36;;;;;;;;;;;13.30;69.60;;;;;;5057841;28;19943;-83
2022/11/16 14:05:11;;;;;;;;;;;13.40;69.30;;;;;;5059172;28;19909;-80
2022/11/16 14:07:43;;;;;;;;;;;13.30;69.50;;;;;;5043319;28;19920;-82
2022/11/16 14:10:29;;;;;;;;;;;13.30;69.30;;;;;;5035425;28;20442;-81
2022/11/16 14:12:55;;;;;;;;;;;13.20;70.10;;;;;;4992739;28;19913;-84
2022/11/16 14:15:22;;;;;;;;;;;13.10;70.60;;;;;;5050402;28;19913;-82
2022/11/16 14:17:48;;;;;;;;;;;13.10;70.40;;;;;;5028142;28;19978;-84
2022/11/16 14:20:14;;;;;;;;;;;13.20;70.70;;;;;;5040836;28;19921;-85
2022/11/16 14:22:56;;;;;;;;;;;13.30;70.00;;;;;;5033161;28;19920;-84
2022/11/16 14:25:27;;;;;;;;;;;13.20;71.30;;;;;;5041648;28;20004;-85
2022/11/16 14:27:58;;;;;;;;;;;13.10;70.60;;;;;;5061270;28;19908;-81
2022/11/16 14:30:27;;;;;;;;;;;13.00;71.10;;;;;;5048093;28;19939;-83
2022/11/16 14:32:53;;;;;;;;;;;12.80;72.30;;;;;;5052450;28;19913;-83
2022/11/16 14:35:31;;;;;;;;;;;12.70;72.00;;;;;;5039220;28;19939;-83
2022/11/16 14:38:14;;;;;;;;;;;12.70;72.50;;;;;;5054850;28;19935;-83
2022/11/16 14:40:51;;;;;;;;;;;12.70;72.80;;;;;;5039197;28;19913;-81
2022/11/16 14:43:20;;;;;;;;;;;12.70;73.40;;;;;;5043075;28;19952;-84
2022/11/16 14:45:53;;;;;;;;;;;12.80;73.50;;;;;;5085414;22;19916;-83
2022/11/16 14:48:20;;;;;;;;;;;12.80;73.60;;;;;;5091086;28;19999;-82
2022/11/16 14:50:57;;;;;;;;;;;12.80;73.30;;;;;;5090456;28;19920;-85
2022/11/16 14:53:23;;;;;;;;;;;12.80;73.00;;;;;;5072280;28;19916;-84
2022/11/16 14:55:48;;;;;;;;;;;12.80;72.40;;;;;;5079803;28;20395;-84
2022/11/16 14:58:14;;;;;;;;;;;12.90;72.40;;;;;;5084194;28;19912;-84
2022/11/16 15:00:39;;;;;;;;;;;12.90;73.00;;;;;;5075432;28;20314;-83
2022/11/16 15:03:08;;;;;;;;;;;12.90;73.50;;;;;;5071263;28;20406;-83
2022/11/16 15:05:34;;;;;;;;;;;13.00;72.10;;;;;;5076818;28;19957;-84
2022/11/16 15:08:00;;;;;;;;;;;13.00;73.00;;;;;;5075321;28;20398;-84